EGEO/OBN METAR and TAF weather

Enter ICAO airport designator
Station Type Date Time Source
EGEO METAR 2020/03/23 15:20 UTC NOAA

EGEO 231520Z 18017KT 9999 SCT035 09/03 Q1017


Station Type Date Time Source
EGEO Decoded METAR 2020/03/23 15:20 UTC NOAA

Station name not available
Mar 23, 2020 - 11:20 AM EDT / 2020.03.23 1520 UTC
Wind: from the S (180 degrees) at 20 MPH (17 KT):0
Visibility: greater than 7 mile(s):0
Sky conditions: partly cloudy
Temperature: 48 F (9 C)
Dew Point: 37 F (3 C)
Relative Humidity: 66%
Pressure (altimeter): 30.03 in. Hg (1017 hPa)
ob: EGEO 231520Z 18017KT 9999 SCT035 09/03 Q1017
cycle: 15

Station Type Date Time Source
EGEO TAF UTC NOAA

Error!

Example: see airport list